createdAt,value
2019-04-21T00:00:35.679Z,68.62
2019-04-21T00:03:10.024Z,71.28
2019-04-21T00:05:57.140Z,71.71
2019-04-21T00:08:35.337Z,75.66
2019-04-21T00:11:06.233Z,73.05
2019-04-21T00:13:27.977Z,73.65
2019-04-21T00:15:52.057Z,74.45
2019-04-21T00:18:49.874Z,73.46
2019-04-21T00:21:22.275Z,76.79
2019-04-21T00:24:00.361Z,76.28
2019-04-21T00:26:33.274Z,75.54
2019-04-21T00:29:09.577Z,75.62
2019-04-21T00:31:35.304Z,76.14
2019-04-21T00:33:51.958Z,77.39
2019-04-21T00:36:29.254Z,78.49
2019-04-21T00:39:20.698Z,80.15
2019-04-21T00:41:50.888Z,80.51
2019-04-21T00:44:13.143Z,81.16
2019-04-21T00:46:44.912Z,79.68
2019-04-21T00:49:18.151Z,79.31
2019-04-21T00:52:25.119Z,83.23
2019-04-21T00:54:49.819Z,78.59
2019-04-21T00:57:18.099Z,80.53
2019-04-21T00:59:57.056Z,84.63
2019-04-21T01:02:20.215Z,83.91
2019-04-21T01:05:02.014Z,82.71
2019-04-21T01:07:20.764Z,81.05
2019-04-21T01:09:48.807Z,82.03
2019-04-21T01:12:29.811Z,80.88
2019-04-21T01:15:04.915Z,82.58
2019-04-21T01:17:30.843Z,80.07
2019-04-21T01:20:00.080Z,80.98
2019-04-21T01:22:13.388Z,83.73
2019-04-21T01:24:47.256Z,81.77
2019-04-21T01:27:25.070Z,82.45
2019-04-21T01:30:14.322Z,85.53
2019-04-21T01:32:42.603Z,86.24
2019-04-21T01:35:10.173Z,87.11
2019-04-21T01:37:43.816Z,83.77
2019-04-21T01:40:22.631Z,83.78
2019-04-21T01:42:45.835Z,84.22
2019-04-21T01:45:20.042Z,85.17
2019-04-21T01:47:49.040Z,85.65
2019-04-21T01:50:20.072Z,85.56
2019-04-21T01:52:57.639Z,84.86
2019-04-21T01:55:54.139Z,85.19
2019-04-21T01:58:18.250Z,85.54
2019-04-21T02:01:03.573Z,86.15
2019-04-21T02:08:41.843Z,87.39
2019-04-21T02:11:15.640Z,87.41
2019-04-21T02:13:53.423Z,87.47
2019-04-21T02:16:19.030Z,88.54
2019-04-21T02:18:52.993Z,88.38
2019-04-21T02:21:17.793Z,87.76
2019-04-21T02:24:00.527Z,88.01
2019-04-21T02:26:28.443Z,88.43
2019-04-21T02:29:00.115Z,90.12
2019-04-21T02:31:55.419Z,90.73
2019-04-21T02:34:06.497Z,90.71
2019-04-21T02:39:18.052Z,90.07
2019-04-21T02:41:50.697Z,90.37
2019-04-21T02:44:16.671Z,91.77
2019-04-21T02:46:50.396Z,92.14
2019-04-21T02:49:45.155Z,92.35
2019-04-21T02:51:58.554Z,93.26
2019-04-21T02:57:01.730Z,94.87
2019-04-21T02:59:33.101Z,95.25
2019-04-21T03:02:16.295Z,95.68
2019-04-21T03:07:25.465Z,94.59
2019-04-21T03:09:53.246Z,94.26
2019-04-21T03:12:22.650Z,95.12
2019-04-21T03:15:06.362Z,95.66
2019-04-21T03:17:46.080Z,95.14
2019-04-21T03:22:32.294Z,95.50
2019-04-21T03:25:25.306Z,95.91
2019-04-21T03:27:50.286Z,96.54
2019-04-21T03:30:29.285Z,98.21
2019-04-21T03:35:53.459Z,98.69
2019-04-21T03:37:49.364Z,98.71
2019-04-21T03:40:16.733Z,98.47
2019-04-21T03:42:52.999Z,99.38
2019-04-21T03:45:34.830Z,99.35
2019-04-21T03:47:53.572Z,100.00
2019-04-21T03:50:30.380Z,99.37
2019-04-21T03:53:09.683Z,99.51
2019-04-21T04:06:29.548Z,100.00
2019-04-21T04:09:26.449Z,100.00
2019-04-21T04:16:50.444Z,100.00
2019-04-21T04:19:35.738Z,100.00
2019-04-21T04:24:28.504Z,100.00
2019-04-21T04:27:02.371Z,100.00
2019-04-21T04:29:24.117Z,100.00
2019-04-21T04:31:50.926Z,100.00
2019-04-21T04:34:29.170Z,100.00
2019-04-21T04:37:12.379Z,100.00
2019-04-21T04:45:08.201Z,100.00
2019-04-21T04:47:24.371Z,100.00
2019-04-21T04:49:53.347Z,100.00
2019-04-21T04:52:32.563Z,100.00
2019-04-21T04:57:39.599Z,100.00
2019-04-21T05:00:15.564Z,100.00
2019-04-21T05:07:46.155Z,100.00
2019-04-21T05:10:27.585Z,97.72
2019-04-21T05:12:35.775Z,96.04
2019-04-21T05:15:16.191Z,92.21
2019-04-21T05:17:48.250Z,85.99
2019-04-21T05:22:42.258Z,70.92
2019-04-21T05:25:06.968Z,66.85
2019-04-21T05:27:40.997Z,64.67
2019-04-21T05:33:27.285Z,61.99
2019-04-21T05:36:10.904Z,60.66
2019-04-21T05:38:57.031Z,59.51
2019-04-21T05:41:23.206Z,55.89
2019-04-21T05:44:06.595Z,54.88
2019-04-21T05:46:35.565Z,53.48
2019-04-21T05:49:10.857Z,50.75
2019-04-21T05:51:55.619Z,51.08
2019-04-21T05:54:39.479Z,47.85
2019-04-21T05:57:05.767Z,49.69
2019-04-21T05:59:37.645Z,48.94
2019-04-21T06:02:19.147Z,46.21
2019-04-21T06:05:07.202Z,44.33
2019-04-21T06:07:18.848Z,45.32
2019-04-21T06:09:51.323Z,44.85
2019-04-21T06:12:14.646Z,44.71
2019-04-21T06:17:27.863Z,43.38
2019-04-21T06:19:57.294Z,43.05
2019-04-21T06:22:22.154Z,42.02
2019-04-21T06:25:21.075Z,41.15
2019-04-21T06:27:32.736Z,41.37
2019-04-21T06:30:10.618Z,40.74
2019-04-21T06:35:35.479Z,40.04
2019-04-21T06:37:49.125Z,40.58
2019-04-21T06:40:28.744Z,40.70
2019-04-21T06:43:11.044Z,38.91
2019-04-21T06:45:37.726Z,39.08
2019-04-21T06:48:04.241Z,37.43
2019-04-21T06:50:39.724Z,35.71
2019-04-21T06:53:06.463Z,35.06
2019-04-21T06:55:37.568Z,33.69
2019-04-21T06:58:10.108Z,32.94
2019-04-21T07:00:41.377Z,31.65
2019-04-21T07:05:49.032Z,30.77
2019-04-21T07:08:31.271Z,29.79
2019-04-21T07:10:52.033Z,29.79
2019-04-21T07:13:19.183Z,30.00
2019-04-21T07:15:53.288Z,28.66
2019-04-21T07:18:30.655Z,27.86
2019-04-21T07:20:53.158Z,27.54
2019-04-21T07:23:35.529Z,27.06
2019-04-21T07:25:57.902Z,28.50
2019-04-21T07:28:31.969Z,27.75
2019-04-21T07:31:12.988Z,27.04
2019-04-21T07:36:06.341Z,26.02
2019-04-21T07:38:33.126Z,24.84
2019-04-21T07:41:08.042Z,24.39
2019-04-21T07:43:34.361Z,22.82
2019-04-21T07:46:06.759Z,21.88
2019-04-21T07:48:49.526Z,20.55
2019-04-21T07:51:49.049Z,19.67
2019-04-21T07:54:17.180Z,19.63
2019-04-21T07:56:33.246Z,20.32
2019-04-21T07:59:21.039Z,20.29
2019-04-21T08:01:50.671Z,20.01
2019-04-21T08:04:42.662Z,18.72
2019-04-21T08:06:52.057Z,17.99
2019-04-21T08:09:27.517Z,17.06
2019-04-21T08:11:52.206Z,16.45
2019-04-21T08:14:31.767Z,15.98
2019-04-21T08:17:04.944Z,14.67
2019-04-21T08:19:32.519Z,14.15
2019-04-21T08:24:35.099Z,14.37
2019-04-21T08:27:11.059Z,14.13
2019-04-21T08:29:39.473Z,13.55
2019-04-21T08:32:39.133Z,13.63
2019-04-21T08:34:43.254Z,13.38
2019-04-21T08:37:12.623Z,12.63
2019-04-21T08:39:59.418Z,12.68
2019-04-21T08:42:21.596Z,13.34
2019-04-21T08:44:54.117Z,13.84
2019-04-21T08:47:25.572Z,13.61
2019-04-21T08:49:55.897Z,13.36
2019-04-21T08:52:37.699Z,12.84
2019-04-21T08:55:07.087Z,12.29
2019-04-21T08:57:56.794Z,12.81
2019-04-21T09:03:02.558Z,12.46
2019-04-21T09:05:31.258Z,12.71
2019-04-21T09:08:06.654Z,12.57
2019-04-21T09:10:35.637Z,13.38
2019-04-21T09:13:04.350Z,14.51
2019-04-21T09:15:34.964Z,14.66
2019-04-21T09:18:08.435Z,15.24
2019-04-21T09:20:47.358Z,15.82
2019-04-21T09:23:17.740Z,14.49
2019-04-21T09:25:55.414Z,14.50
2019-04-21T09:28:18.553Z,14.56
2019-04-21T09:30:39.529Z,15.23
2019-04-21T09:33:05.722Z,15.23
2019-04-21T09:35:42.847Z,15.25
2019-04-21T09:38:20.833Z,15.54
2019-04-21T09:40:45.461Z,16.53
2019-04-21T09:43:13.806Z,16.29
2019-04-21T09:45:45.229Z,16.47
2019-04-21T09:48:18.980Z,19.03
2019-04-21T09:50:48.067Z,18.44
2019-04-21T09:53:28.722Z,19.03
2019-04-21T09:55:55.919Z,19.04
2019-04-21T09:58:29.256Z,19.57
2019-04-21T10:01:06.164Z,19.50
2019-04-21T10:03:26.351Z,19.54
2019-04-21T10:05:56.440Z,18.91
2019-04-21T10:08:27.255Z,19.38
2019-04-21T10:11:03.261Z,18.89
2019-04-21T10:13:33.999Z,19.24
2019-04-21T10:16:34.859Z,19.63
2019-04-21T10:19:06.926Z,19.35
2019-04-21T10:21:38.082Z,19.80
2019-04-21T10:24:08.644Z,18.24
2019-04-21T10:26:38.652Z,19.74
2019-04-21T10:29:15.253Z,19.36
2019-04-21T10:31:40.780Z,18.78
2019-04-21T10:34:11.734Z,19.67
2019-04-21T10:36:42.869Z,19.36
2019-04-21T10:39:13.679Z,17.88
2019-04-21T10:41:43.958Z,18.21
2019-04-21T10:44:13.871Z,18.65
2019-04-21T10:46:46.618Z,18.17
2019-04-21T10:49:16.908Z,18.60
2019-04-21T10:51:46.986Z,17.48
2019-04-21T10:54:17.915Z,18.47
2019-04-21T10:56:49.134Z,17.61
2019-04-21T10:59:20.494Z,17.48
2019-04-21T11:01:50.711Z,17.27
2019-04-21T11:04:33.701Z,16.84
2019-04-21T11:07:10.772Z,17.35
2019-04-21T11:09:37.919Z,15.88
2019-04-21T11:12:08.294Z,16.09
2019-04-21T11:14:38.934Z,14.41
2019-04-21T11:17:10.176Z,14.89
2019-04-21T11:19:41.116Z,13.57
2019-04-21T11:22:11.114Z,13.70
2019-04-21T11:24:41.040Z,13.11
2019-04-21T11:27:11.022Z,12.99
2019-04-21T11:29:41.328Z,12.17
2019-04-21T11:32:12.684Z,12.30
2019-04-21T11:34:43.171Z,11.67
2019-04-21T11:37:14.862Z,11.87
2019-04-21T11:39:52.019Z,11.34
2019-04-21T11:42:23.726Z,12.24
2019-04-21T11:44:55.692Z,11.22
2019-04-21T11:47:32.208Z,10.54
2019-04-21T11:50:03.355Z,11.25
2019-04-21T11:52:34.754Z,11.10
2019-04-21T11:55:05.243Z,10.21
2019-04-21T11:57:40.136Z,11.73
2019-04-21T12:00:07.631Z,11.92
2019-04-21T12:02:39.501Z,11.07
2019-04-21T12:05:09.793Z,12.77
2019-04-21T12:07:40.911Z,11.90
2019-04-21T12:10:11.338Z,9.96
2019-04-21T12:12:41.491Z,9.84
2019-04-21T12:15:14.120Z,9.69
2019-04-21T12:17:44.036Z,10.92
2019-04-21T12:20:14.789Z,9.04
2019-04-21T12:22:45.349Z,9.16
2019-04-21T12:25:16.781Z,8.76
2019-04-21T12:27:47.835Z,8.92
2019-04-21T12:30:19.846Z,10.16
2019-04-21T12:32:58.112Z,10.11
2019-04-21T12:35:28.137Z,12.82
2019-04-21T12:37:58.494Z,13.52
2019-04-21T12:40:28.497Z,12.13
2019-04-21T12:42:58.821Z,12.71
2019-04-21T12:45:28.911Z,14.63
2019-04-21T12:48:00.050Z,15.92
2019-04-21T12:50:30.099Z,15.87
2019-04-21T12:53:00.196Z,15.94
2019-04-21T12:55:35.122Z,16.48
2019-04-21T12:58:03.405Z,16.59
2019-04-21T13:00:33.536Z,15.01
2019-04-21T13:03:03.688Z,13.61
2019-04-21T13:05:35.692Z,12.23
2019-04-21T13:08:07.077Z,11.09
2019-04-21T13:10:38.136Z,11.52
2019-04-21T13:13:08.209Z,11.44
2019-04-21T13:15:38.229Z,10.43
2019-04-21T13:18:08.337Z,10.70
2019-04-21T13:20:38.471Z,11.04
2019-04-21T13:23:08.451Z,11.07
2019-04-21T13:25:38.338Z,9.87
2019-04-21T13:28:08.462Z,8.91
2019-04-21T13:30:38.338Z,9.85
2019-04-21T13:33:09.155Z,10.95
2019-04-21T13:35:41.215Z,10.37
2019-04-21T13:38:20.015Z,10.43
2019-04-21T13:41:22.794Z,10.87
2019-04-21T13:43:41.183Z,11.00
2019-04-21T13:46:12.194Z,10.86
2019-04-21T13:48:42.592Z,10.36
2019-04-21T13:51:13.321Z,10.23
2019-04-21T13:53:45.861Z,9.64
2019-04-21T13:56:16.275Z,10.73
2019-04-21T13:58:46.411Z,11.11
2019-04-21T14:01:17.923Z,10.43
2019-04-21T14:03:49.086Z,10.00
2019-04-21T14:06:20.399Z,10.68
2019-04-21T14:08:52.398Z,12.27
2019-04-21T14:11:23.056Z,14.63
2019-04-21T14:13:54.394Z,11.82
2019-04-21T14:16:24.531Z,12.00
2019-04-21T14:18:55.195Z,11.90
2019-04-21T14:21:25.126Z,12.17
2019-04-21T14:23:56.385Z,12.13
2019-04-21T14:26:26.936Z,12.94
2019-04-21T14:28:56.922Z,13.44
2019-04-21T14:31:28.335Z,13.43
2019-04-21T14:33:59.664Z,13.58
2019-04-21T14:36:30.721Z,13.15
2019-04-21T14:39:02.837Z,12.91
2019-04-21T14:41:32.899Z,12.81
2019-04-21T14:44:02.966Z,11.94
2019-04-21T14:47:11.225Z,11.87
2019-04-21T14:50:00.257Z,12.28
2019-04-21T14:52:35.050Z,12.36
2019-04-21T14:55:16.641Z,13.21
2019-04-21T14:57:47.386Z,13.67
2019-04-21T15:00:21.069Z,14.00
2019-04-21T15:02:51.826Z,13.91
2019-04-21T15:05:21.846Z,13.20
2019-04-21T15:07:53.063Z,13.65
2019-04-21T15:10:26.097Z,13.22
2019-04-21T15:12:56.123Z,12.14
2019-04-21T15:15:26.190Z,12.36
2019-04-21T15:17:56.180Z,12.01
2019-04-21T15:20:26.894Z,11.84
2019-04-21T15:22:57.472Z,12.97
2019-04-21T15:25:27.936Z,13.54
2019-04-21T15:27:59.070Z,13.08
2019-04-21T15:30:29.080Z,12.71
2019-04-21T15:33:00.404Z,13.23
2019-04-21T15:35:31.035Z,13.11
2019-04-21T15:38:02.055Z,12.37
2019-04-21T15:40:41.884Z,12.81
2019-04-21T15:43:04.503Z,12.64
2019-04-21T15:45:34.961Z,13.00
2019-04-21T15:48:05.447Z,13.19
2019-04-21T15:50:35.749Z,13.00
2019-04-21T15:53:07.714Z,13.13
2019-04-21T15:55:46.955Z,13.03
2019-04-21T15:58:24.770Z,14.33
2019-04-21T16:01:02.784Z,13.70
2019-04-21T16:03:34.468Z,14.01
2019-04-21T16:06:05.641Z,13.72
2019-04-21T16:08:37.404Z,14.20
2019-04-21T16:11:10.830Z,14.83
2019-04-21T16:13:39.670Z,14.22
2019-04-21T16:16:10.514Z,14.29
2019-04-21T16:18:42.503Z,14.02
2019-04-21T16:21:13.847Z,13.78
2019-04-21T16:23:44.505Z,14.57
2019-04-21T16:26:14.983Z,14.67
2019-04-21T16:28:45.263Z,14.57
2019-04-21T16:31:16.333Z,14.03
2019-04-21T16:33:47.186Z,14.46
2019-04-21T16:36:18.334Z,14.28
2019-04-21T16:38:49.405Z,14.17
2019-04-21T16:41:20.313Z,14.76
2019-04-21T16:43:51.390Z,15.76
2019-04-21T16:46:21.299Z,15.65
2019-04-21T16:48:51.652Z,15.49
2019-04-21T16:51:22.227Z,15.86
2019-04-21T16:53:57.784Z,16.22
2019-04-21T16:56:35.878Z,16.23
2019-04-21T16:59:18.940Z,16.72
2019-04-21T17:01:48.992Z,17.25
2019-04-21T17:04:20.275Z,17.10
2019-04-21T17:06:51.265Z,16.52
2019-04-21T17:09:22.985Z,16.73
2019-04-21T17:11:58.046Z,17.06
2019-04-21T17:14:43.773Z,17.26
2019-04-21T17:17:17.856Z,17.40
2019-04-21T17:19:34.750Z,17.28
2019-04-21T17:22:01.756Z,17.17
2019-04-21T17:24:32.547Z,18.86
2019-04-21T17:27:02.947Z,18.56
2019-04-21T17:29:34.546Z,18.48
2019-04-21T17:32:07.693Z,18.15
2019-04-21T17:34:37.963Z,22.17
2019-04-21T17:37:08.827Z,18.37
2019-04-21T17:39:38.937Z,19.19
2019-04-21T17:42:18.370Z,19.44
2019-04-21T17:44:41.314Z,20.45
2019-04-21T17:47:22.505Z,21.74
2019-04-21T17:49:48.785Z,20.61
2019-04-21T17:52:42.976Z,20.92
2019-04-21T17:55:22.985Z,22.14
2019-04-21T17:58:05.115Z,22.44
2019-04-21T18:01:05.564Z,22.66
2019-04-21T18:03:28.131Z,26.17
2019-04-21T18:05:48.513Z,29.71
2019-04-21T18:08:23.462Z,24.84
2019-04-21T18:10:48.085Z,25.21
2019-04-21T18:13:08.591Z,26.49
2019-04-21T18:15:51.965Z,27.19
2019-04-21T18:18:08.432Z,30.08
2019-04-21T18:20:41.825Z,27.34
2019-04-21T18:23:35.139Z,28.70
2019-04-21T18:26:01.678Z,30.68
2019-04-21T18:28:26.357Z,31.17
2019-04-21T18:31:02.372Z,32.59
2019-04-21T18:33:37.053Z,31.56
2019-04-21T18:36:13.509Z,28.85
2019-04-21T18:39:19.768Z,33.34
2019-04-21T18:41:36.600Z,31.30
2019-04-21T18:44:33.242Z,33.23
2019-04-21T18:47:31.957Z,30.51
2019-04-21T18:49:43.709Z,31.62
2019-04-21T18:52:40.594Z,31.58
2019-04-21T18:55:09.431Z,30.03
2019-04-21T18:57:38.430Z,33.75
2019-04-21T18:59:59.567Z,32.83
2019-04-21T19:02:38.435Z,31.36
2019-04-21T19:05:09.905Z,31.67
2019-04-21T19:07:59.772Z,33.74
2019-04-21T19:10:33.181Z,32.48
2019-04-21T19:15:28.117Z,34.95
2019-04-21T19:20:34.881Z,35.36
2019-04-21T19:23:08.448Z,37.06
2019-04-21T19:25:41.261Z,38.38
2019-04-21T19:28:06.111Z,39.80
2019-04-21T19:30:53.809Z,41.17
2019-04-21T19:33:14.507Z,34.91
2019-04-21T19:35:32.223Z,34.54
2019-04-21T19:38:07.008Z,35.58
2019-04-21T19:40:51.870Z,35.58
2019-04-21T19:43:29.415Z,36.70
2019-04-21T19:45:56.337Z,35.98
2019-04-21T19:48:26.063Z,36.58
2019-04-21T19:51:01.317Z,36.93
2019-04-21T19:53:32.918Z,40.78
2019-04-21T19:55:45.746Z,43.78
2019-04-21T19:58:19.474Z,36.96
2019-04-21T20:00:50.842Z,36.66
2019-04-21T20:03:20.937Z,37.04
2019-04-21T20:06:00.393Z,38.05
2019-04-21T20:08:36.156Z,36.33
2019-04-21T20:11:18.162Z,36.44
2019-04-21T20:14:18.385Z,37.56
2019-04-21T20:16:19.182Z,37.52
2019-04-21T20:18:37.895Z,37.57
2019-04-21T20:21:01.933Z,37.64
2019-04-21T20:23:35.428Z,37.20
2019-04-21T20:26:06.213Z,38.01
2019-04-21T20:28:48.969Z,38.15
2019-04-21T20:31:23.608Z,38.52
2019-04-21T20:33:59.614Z,42.83
2019-04-21T20:36:33.111Z,39.33
2019-04-21T20:38:52.521Z,37.90
2019-04-21T20:41:27.008Z,37.99
2019-04-21T20:44:09.899Z,38.91
2019-04-21T20:46:36.731Z,39.33
2019-04-21T20:49:01.708Z,39.35
2019-04-21T20:51:37.593Z,40.03
2019-04-21T20:54:08.685Z,39.87
2019-04-21T20:56:43.899Z,40.38
2019-04-21T20:59:11.977Z,40.89
2019-04-21T21:01:47.781Z,40.67
2019-04-21T21:04:13.808Z,40.39
2019-04-21T21:06:47.203Z,40.97
2019-04-21T21:09:18.317Z,41.44
2019-04-21T21:12:11.457Z,40.82
2019-04-21T21:14:24.933Z,40.46
2019-04-21T21:17:03.269Z,41.25
2019-04-21T21:19:34.814Z,40.67
2019-04-21T21:21:57.609Z,39.76
2019-04-21T21:24:36.366Z,40.03
2019-04-21T21:27:09.122Z,39.47
2019-04-21T21:29:33.505Z,40.21
2019-04-21T21:32:16.880Z,40.36
2019-04-21T21:34:47.267Z,40.40
2019-04-21T21:37:21.901Z,40.50
2019-04-21T21:39:53.682Z,40.88
2019-04-21T21:42:02.818Z,40.85
2019-04-21T21:44:33.805Z,41.38
2019-04-21T21:47:17.242Z,40.28
2019-04-21T21:49:48.086Z,40.61
2019-04-21T21:52:16.878Z,40.58
2019-04-21T21:54:38.073Z,40.83
2019-04-21T21:57:08.307Z,40.49
2019-04-21T21:59:40.057Z,40.98
2019-04-21T22:02:17.222Z,40.34
2019-04-21T22:04:51.092Z,40.37
2019-04-21T22:07:17.830Z,41.15
2019-04-21T22:09:48.300Z,40.77
2019-04-21T22:12:18.360Z,41.43
2019-04-21T22:14:52.052Z,40.71
2019-04-21T22:17:36.905Z,40.40
2019-04-21T22:20:17.014Z,40.72
2019-04-21T22:22:39.016Z,40.98
2019-04-21T22:25:06.940Z,41.51
2019-04-21T22:27:27.835Z,41.79
2019-04-21T22:30:02.961Z,41.59
2019-04-21T22:32:31.468Z,41.89
2019-04-21T22:35:06.927Z,41.55
2019-04-21T22:37:45.094Z,43.15
2019-04-21T22:40:16.856Z,42.00
2019-04-21T22:42:47.356Z,42.10
2019-04-21T22:45:11.292Z,42.27
2019-04-21T22:47:42.876Z,42.24
2019-04-21T22:50:28.975Z,43.86
2019-04-21T22:53:04.146Z,42.25
2019-04-21T22:55:35.015Z,43.02
2019-04-21T22:58:03.894Z,43.15
2019-04-21T23:00:41.013Z,45.61
2019-04-21T23:03:12.994Z,47.20
2019-04-21T23:05:42.701Z,47.39
2019-04-21T23:08:11.050Z,49.50
2019-04-21T23:10:48.290Z,49.87
2019-04-21T23:13:19.883Z,49.19
2019-04-21T23:15:51.759Z,50.92
2019-04-21T23:18:37.419Z,49.30
2019-04-21T23:21:09.121Z,47.72
2019-04-21T23:23:48.330Z,51.31
2019-04-21T23:26:15.945Z,50.82
2019-04-21T23:28:49.070Z,50.61
2019-04-21T23:31:18.675Z,50.53
2019-04-21T23:33:31.443Z,50.87
2019-04-21T23:36:11.301Z,50.06
2019-04-21T23:38:41.702Z,50.42
2019-04-21T23:41:09.197Z,50.63
2019-04-21T23:43:38.928Z,54.01
2019-04-21T23:46:19.829Z,54.42
2019-04-21T23:49:02.420Z,54.32
2019-04-21T23:51:25.888Z,55.12
2019-04-21T23:53:45.161Z,53.67
2019-04-21T23:56:21.801Z,53.92
2019-04-21T23:58:54.717Z,53.46
